createdAt,value
2018-06-20T00:00:25.834Z,4.63
2018-06-20T00:02:53.916Z,3.60
2018-06-20T00:05:22.002Z,4.23
2018-06-20T00:07:50.079Z,4.23
2018-06-20T00:10:18.210Z,4.47
2018-06-20T00:12:46.296Z,4.10
2018-06-20T00:15:14.394Z,4.07
2018-06-20T00:17:42.476Z,4.80
2018-06-20T00:20:10.558Z,3.77
2018-06-20T00:22:38.685Z,4.47
2018-06-20T00:25:06.768Z,4.43
2018-06-20T00:27:34.852Z,4.70
2018-06-20T00:30:02.949Z,4.30
2018-06-20T00:32:31.041Z,4.40
2018-06-20T00:34:59.128Z,4.37
2018-06-20T00:37:27.354Z,4.20
2018-06-20T00:39:55.438Z,4.20
2018-06-20T00:42:23.529Z,4.27
2018-06-20T00:44:51.599Z,4.60
2018-06-20T00:47:19.689Z,4.40
2018-06-20T00:49:47.760Z,4.07
2018-06-20T00:52:15.868Z,4.20
2018-06-20T00:54:43.933Z,4.70
2018-06-20T00:57:12.017Z,4.37
2018-06-20T00:59:40.256Z,4.20
2018-06-20T01:02:08.330Z,5.33
2018-06-20T01:04:36.410Z,3.70
2018-06-20T01:07:04.488Z,4.53
2018-06-20T01:09:32.569Z,4.67
2018-06-20T01:12:00.669Z,4.83
2018-06-20T01:14:28.753Z,4.80
2018-06-20T01:16:56.824Z,4.67
2018-06-20T01:19:24.906Z,5.00
2018-06-20T01:21:52.981Z,4.40
2018-06-20T01:24:21.082Z,5.10
2018-06-20T01:26:49.140Z,4.43
2018-06-20T01:29:17.216Z,4.03
2018-06-20T01:31:45.289Z,4.60
2018-06-20T01:34:13.370Z,4.20
2018-06-20T01:36:41.441Z,4.70
2018-06-20T01:39:10.921Z,5.00
2018-06-20T01:41:38.986Z,4.97
2018-06-20T01:44:07.072Z,4.93
2018-06-20T01:46:35.224Z,5.03
2018-06-20T01:49:03.312Z,4.60
2018-06-20T01:51:31.368Z,4.80
2018-06-20T01:53:59.428Z,4.60
2018-06-20T01:56:27.517Z,4.70
2018-06-20T01:58:55.593Z,4.27
2018-06-20T02:01:23.668Z,4.80
2018-06-20T02:03:51.741Z,5.93
2018-06-20T02:06:19.829Z,4.63
2018-06-20T02:08:47.897Z,4.77
2018-06-20T02:11:15.978Z,5.80
2018-06-20T02:13:44.050Z,5.33
2018-06-20T02:16:12.134Z,5.53
2018-06-20T02:18:40.200Z,5.20
2018-06-20T02:21:08.290Z,5.90
2018-06-20T02:23:36.369Z,5.23
2018-06-20T02:26:04.757Z,4.93
2018-06-20T02:28:32.845Z,5.73
2018-06-20T02:31:00.926Z,5.53
2018-06-20T02:33:29.022Z,6.37
2018-06-20T02:36:01.437Z,6.10
2018-06-20T02:38:29.737Z,6.00
2018-06-20T02:40:57.834Z,5.43
2018-06-20T02:43:25.912Z,5.10
2018-06-20T02:45:53.997Z,5.53
2018-06-20T02:48:22.073Z,5.40
2018-06-20T02:50:50.168Z,5.20
2018-06-20T02:53:18.021Z,5.90
2018-06-20T02:55:46.104Z,7.10
2018-06-20T02:58:14.196Z,4.87
2018-06-20T03:00:42.273Z,6.10
2018-06-20T03:03:10.362Z,6.83
2018-06-20T03:05:38.441Z,5.90
2018-06-20T03:08:06.538Z,5.47
2018-06-20T03:10:34.608Z,6.00
2018-06-20T03:13:02.728Z,5.60
2018-06-20T03:15:30.809Z,5.57
2018-06-20T03:17:58.885Z,6.00
2018-06-20T03:20:27.039Z,6.03
2018-06-20T03:22:55.317Z,6.57
2018-06-20T03:25:23.417Z,5.77
2018-06-20T03:27:51.510Z,6.13
2018-06-20T03:30:19.589Z,5.70
2018-06-20T03:32:47.677Z,6.40
2018-06-20T03:35:15.766Z,5.47
2018-06-20T03:37:43.842Z,5.70
2018-06-20T03:40:11.920Z,6.20
2018-06-20T03:42:40.000Z,6.33
2018-06-20T03:45:08.109Z,6.80
2018-06-20T03:47:36.185Z,6.50
2018-06-20T03:50:04.317Z,5.77
2018-06-20T03:52:32.493Z,6.90
2018-06-20T03:55:00.602Z,6.30
2018-06-20T03:57:28.678Z,6.73
2018-06-20T03:59:56.766Z,7.20
2018-06-20T04:02:24.913Z,5.90
2018-06-20T04:04:52.942Z,6.20
2018-06-20T04:07:21.033Z,6.70
2018-06-20T04:09:49.122Z,6.40
2018-06-20T04:12:17.348Z,6.07
2018-06-20T04:14:45.448Z,6.27
2018-06-20T04:17:13.526Z,6.93
2018-06-20T04:19:41.609Z,7.10
2018-06-20T04:22:09.484Z,6.60
2018-06-20T04:24:37.573Z,6.73
2018-06-20T04:27:05.666Z,8.30
2018-06-20T04:29:33.741Z,6.83
2018-06-20T04:32:01.829Z,7.30
2018-06-20T04:34:29.902Z,8.40
2018-06-20T04:36:57.984Z,6.57
2018-06-20T04:39:26.469Z,7.40
2018-06-20T04:41:54.565Z,7.00
2018-06-20T04:44:22.417Z,7.43
2018-06-20T04:46:50.503Z,7.13
2018-06-20T04:49:18.605Z,6.53
2018-06-20T04:51:46.778Z,6.90
2018-06-20T04:54:14.857Z,7.07
2018-06-20T04:56:42.938Z,7.40
2018-06-20T04:59:11.025Z,7.57
2018-06-20T05:01:39.106Z,8.30
2018-06-20T05:04:07.206Z,7.03
2018-06-20T05:06:35.109Z,7.73
2018-06-20T05:09:07.482Z,7.50
2018-06-20T05:11:35.597Z,8.03
2018-06-20T05:14:03.697Z,8.30
2018-06-20T05:16:31.780Z,7.97
2018-06-20T05:18:59.879Z,8.13
2018-06-20T05:21:27.965Z,7.23
2018-06-20T05:23:56.045Z,8.00
2018-06-20T05:26:24.134Z,7.20
2018-06-20T05:28:52.223Z,8.03
2018-06-20T05:31:20.292Z,6.83
2018-06-20T05:33:48.370Z,7.60
2018-06-20T05:36:16.445Z,7.37
2018-06-20T05:38:44.553Z,6.67
2018-06-20T05:41:12.636Z,6.27
2018-06-20T05:43:40.730Z,6.00
2018-06-20T05:46:08.826Z,6.43
2018-06-20T05:48:36.909Z,6.73
2018-06-20T05:51:05.001Z,8.00
2018-06-20T05:53:33.077Z,6.87
2018-06-20T05:56:01.156Z,7.80
2018-06-20T05:58:29.240Z,7.87
2018-06-20T06:00:57.329Z,8.67
2018-06-20T06:03:25.405Z,7.07
2018-06-20T06:06:04.898Z,6.90
2018-06-20T06:08:32.970Z,7.67
2018-06-20T06:11:01.070Z,7.00
2018-06-20T06:13:28.925Z,6.37
2018-06-20T06:15:57.014Z,6.90
2018-06-20T06:18:25.096Z,6.33
2018-06-20T06:20:53.168Z,6.03
2018-06-20T06:23:21.293Z,5.27
2018-06-20T06:25:49.332Z,5.77
2018-06-20T06:28:17.433Z,6.03
2018-06-20T06:30:45.504Z,5.10
2018-06-20T06:33:13.590Z,4.50
2018-06-20T06:35:41.676Z,5.63
2018-06-20T06:38:09.754Z,5.13
2018-06-20T06:40:37.816Z,5.63
2018-06-20T06:43:06.044Z,5.13
2018-06-20T06:45:34.112Z,5.20
2018-06-20T06:48:02.392Z,6.97
2018-06-20T06:50:30.661Z,4.83
2018-06-20T06:52:58.736Z,5.47
2018-06-20T06:55:26.801Z,3.90
2018-06-20T06:57:54.877Z,5.90
2018-06-20T07:00:22.949Z,5.50
2018-06-20T07:02:51.101Z,5.67
2018-06-20T07:05:19.182Z,6.13
2018-06-20T07:07:47.290Z,6.60
2018-06-20T07:10:15.385Z,5.53
2018-06-20T07:12:43.227Z,5.70
2018-06-20T07:15:11.309Z,6.37
2018-06-20T07:17:39.376Z,6.87
2018-06-20T07:20:07.451Z,7.03
2018-06-20T07:22:35.682Z,5.47
2018-06-20T07:25:03.845Z,6.50
2018-06-20T07:27:31.905Z,6.50
2018-06-20T07:30:00.078Z,5.67
2018-06-20T07:32:28.049Z,5.77
2018-06-20T07:34:56.125Z,6.20
2018-06-20T07:37:24.226Z,5.50
2018-06-20T07:39:52.312Z,6.40
2018-06-20T07:42:20.548Z,6.97
2018-06-20T07:44:48.628Z,6.13
2018-06-20T07:47:16.794Z,5.67
2018-06-20T07:49:44.873Z,6.33
2018-06-20T07:52:12.968Z,6.47
2018-06-20T07:54:41.051Z,7.73
2018-06-20T07:57:09.138Z,7.30
2018-06-20T07:59:42.630Z,6.10
2018-06-20T08:02:21.729Z,6.50
2018-06-20T08:04:55.305Z,5.30
2018-06-20T08:07:28.618Z,6.03
2018-06-20T08:10:02.162Z,6.47
2018-06-20T08:12:35.610Z,6.60
2018-06-20T08:15:11.657Z,5.70
2018-06-20T08:17:45.202Z,7.10
2018-06-20T08:20:19.992Z,5.30
2018-06-20T08:22:48.067Z,5.37
2018-06-20T08:25:16.153Z,5.83
2018-06-20T08:27:44.228Z,5.83
2018-06-20T08:30:12.310Z,3.93
2018-06-20T08:32:40.389Z,5.30
2018-06-20T08:35:08.249Z,4.87
2018-06-20T08:37:36.332Z,6.57
2018-06-20T08:40:04.495Z,4.93
2018-06-20T08:42:32.617Z,5.50
2018-06-20T08:45:00.645Z,5.60
2018-06-20T08:47:28.746Z,5.67
2018-06-20T08:49:56.813Z,5.70
2018-06-20T08:52:25.317Z,5.23
2018-06-20T08:54:53.388Z,5.60
2018-06-20T08:57:21.502Z,5.10
2018-06-20T08:59:49.572Z,4.73
2018-06-20T09:02:18.513Z,4.43
2018-06-20T09:04:52.324Z,5.23
2018-06-20T09:07:25.914Z,5.23
2018-06-20T09:09:59.345Z,4.60
2018-06-20T09:12:32.777Z,5.57
2018-06-20T09:15:06.104Z,6.43
2018-06-20T09:17:39.633Z,6.30
2018-06-20T09:20:07.728Z,4.90
2018-06-20T09:22:35.810Z,5.43
2018-06-20T09:25:03.910Z,6.20
2018-06-20T09:27:32.017Z,5.60
2018-06-20T09:30:00.106Z,5.50
2018-06-20T09:32:28.169Z,7.40
2018-06-20T09:34:56.016Z,6.90
2018-06-20T09:37:24.109Z,6.40
2018-06-20T09:39:52.193Z,7.50
2018-06-20T09:42:20.265Z,6.40
2018-06-20T09:44:48.368Z,5.70
2018-06-20T09:47:16.437Z,6.60
2018-06-20T09:49:44.512Z,5.80
2018-06-20T09:52:12.594Z,5.27
2018-06-20T09:54:40.694Z,5.40
2018-06-20T09:57:08.874Z,4.27
2018-06-20T09:59:42.311Z,7.30
2018-06-20T10:02:15.842Z,7.10
2018-06-20T10:04:49.461Z,5.67
2018-06-20T10:07:22.952Z,6.70
2018-06-20T10:09:56.286Z,6.10
2018-06-20T10:12:29.604Z,7.40
2018-06-20T10:14:57.697Z,6.90
2018-06-20T10:17:25.772Z,6.03
2018-06-20T10:19:53.862Z,6.53
2018-06-20T10:22:21.932Z,6.60
2018-06-20T10:24:50.034Z,6.07
2018-06-20T10:27:18.116Z,6.20
2018-06-20T10:29:46.220Z,5.60
2018-06-20T10:32:14.332Z,5.23
2018-06-20T10:34:42.421Z,6.33
2018-06-20T10:37:10.492Z,6.03
2018-06-20T10:39:38.581Z,7.10
2018-06-20T10:42:06.652Z,6.60
2018-06-20T10:44:34.741Z,6.13
2018-06-20T10:47:08.290Z,5.53
2018-06-20T10:49:36.387Z,5.20
2018-06-20T10:52:04.462Z,5.37
2018-06-20T10:54:32.542Z,4.23
2018-06-20T10:57:05.833Z,6.00
2018-06-20T10:59:39.253Z,5.70
2018-06-20T11:02:12.792Z,5.60
2018-06-20T11:04:46.225Z,5.80
2018-06-20T11:07:19.629Z,6.10
2018-06-20T11:09:53.225Z,6.57
2018-06-20T11:12:26.668Z,6.40
2018-06-20T11:14:54.769Z,6.10
2018-06-20T11:17:22.843Z,5.87
2018-06-20T11:19:50.917Z,5.50
2018-06-20T11:22:19.005Z,6.47
2018-06-20T11:24:47.090Z,4.37
2018-06-20T11:27:15.215Z,5.87
2018-06-20T11:29:43.290Z,5.40
2018-06-20T11:32:11.373Z,5.47
2018-06-20T11:34:39.439Z,4.20
2018-06-20T11:37:07.520Z,3.57
2018-06-20T11:39:35.660Z,5.00
2018-06-20T11:42:03.677Z,6.10
2018-06-20T11:44:31.744Z,4.23
2018-06-20T11:47:05.350Z,4.17
2018-06-20T11:49:33.473Z,3.80
2018-06-20T11:52:05.801Z,4.27
2018-06-20T11:54:33.878Z,3.70
2018-06-20T11:57:01.967Z,3.73
2018-06-20T11:59:35.249Z,3.30
2018-06-20T12:02:08.554Z,3.83
2018-06-20T12:04:41.953Z,3.97
2018-06-20T12:07:15.264Z,3.63
2018-06-20T12:09:48.640Z,3.40
2018-06-20T12:12:21.943Z,3.73
2018-06-20T12:14:55.373Z,3.00
2018-06-20T12:17:28.653Z,3.50
2018-06-20T12:20:02.244Z,3.50
2018-06-20T12:22:35.685Z,3.80
2018-06-20T12:25:09.088Z,3.43
2018-06-20T12:27:42.369Z,3.50
2018-06-20T12:30:15.804Z,3.50
2018-06-20T12:32:49.110Z,3.70
2018-06-20T12:35:22.660Z,3.57
2018-06-20T12:37:56.208Z,3.37
2018-06-20T12:40:29.401Z,3.33
2018-06-20T12:43:02.706Z,3.67
2018-06-20T12:45:30.773Z,4.33
2018-06-20T12:47:59.082Z,3.50
2018-06-20T12:50:27.969Z,2.97
2018-06-20T12:52:56.562Z,3.00
2018-06-20T12:55:25.536Z,2.87
2018-06-20T12:57:54.337Z,3.33
2018-06-20T13:00:22.404Z,3.00
2018-06-20T13:02:50.490Z,2.97
2018-06-20T13:05:18.553Z,3.27
2018-06-20T13:07:46.629Z,3.33
2018-06-20T13:10:14.706Z,3.40
2018-06-20T13:12:42.787Z,3.27
2018-06-20T13:15:10.855Z,3.63
2018-06-20T13:17:38.926Z,3.30
2018-06-20T13:20:07.051Z,3.37
2018-06-20T13:22:35.076Z,3.30
2018-06-20T13:25:03.156Z,3.50
2018-06-20T13:27:36.685Z,3.20
2018-06-20T13:30:10.109Z,2.93
2018-06-20T13:32:43.520Z,3.40
2018-06-20T13:35:16.855Z,3.17
2018-06-20T13:37:50.304Z,3.37
2018-06-20T13:40:23.885Z,3.40
2018-06-20T13:42:57.417Z,3.40
2018-06-20T13:45:30.820Z,3.17
2018-06-20T13:48:04.370Z,4.17
2018-06-20T13:50:32.768Z,3.50
2018-06-20T13:53:01.137Z,3.57
2018-06-20T13:55:29.233Z,3.13
2018-06-20T13:57:57.308Z,2.73
2018-06-20T14:00:25.462Z,3.63
2018-06-20T14:02:53.557Z,3.50
2018-06-20T14:05:21.655Z,3.40
2018-06-20T14:07:49.731Z,3.50
2018-06-20T14:10:17.857Z,3.43
2018-06-20T14:12:45.939Z,3.27
2018-06-20T14:15:14.022Z,4.27
2018-06-20T14:17:42.116Z,3.40
2018-06-20T14:20:15.433Z,3.27
2018-06-20T14:22:43.520Z,3.10
2018-06-20T14:25:11.600Z,2.93
2018-06-20T14:27:39.689Z,3.30
2018-06-20T14:30:07.778Z,3.27
2018-06-20T14:32:41.285Z,3.57
2018-06-20T14:35:14.773Z,3.00
2018-06-20T14:37:48.180Z,3.33
2018-06-20T14:40:21.593Z,3.00
2018-06-20T14:42:55.061Z,3.73
2018-06-20T14:45:28.374Z,3.00
2018-06-20T14:47:56.457Z,3.47
2018-06-20T14:50:24.533Z,3.20
2018-06-20T14:52:52.614Z,3.40
2018-06-20T14:55:20.733Z,3.37
2018-06-20T14:57:48.773Z,3.40
2018-06-20T15:00:16.845Z,3.90
2018-06-20T15:02:44.933Z,3.57
2018-06-20T15:05:13.012Z,3.47
2018-06-20T15:07:41.089Z,3.30
2018-06-20T15:10:09.173Z,3.17
2018-06-20T15:12:37.253Z,3.47
2018-06-20T15:15:05.356Z,3.17
2018-06-20T15:17:33.446Z,4.30
2018-06-20T15:20:01.527Z,3.83
2018-06-20T15:22:33.857Z,3.60
2018-06-20T15:25:01.947Z,4.63
2018-06-20T15:27:35.233Z,3.40
2018-06-20T15:30:08.508Z,3.47
2018-06-20T15:32:41.942Z,3.63
2018-06-20T15:35:15.401Z,3.87
2018-06-20T15:38:48.393Z,3.90
2018-06-20T15:41:16.474Z,3.50
2018-06-20T15:43:44.581Z,4.30
2018-06-20T15:46:12.652Z,3.20
2018-06-20T15:48:40.741Z,3.97
2018-06-20T15:51:08.615Z,4.03
2018-06-20T15:53:36.732Z,3.70
2018-06-20T15:56:04.829Z,4.07
2018-06-20T15:58:32.916Z,3.70
2018-06-20T16:01:00.773Z,4.03
2018-06-20T16:03:28.865Z,3.97
2018-06-20T16:05:56.948Z,3.80
2018-06-20T16:08:25.034Z,4.23
2018-06-20T16:10:53.109Z,3.70
2018-06-20T16:13:21.290Z,3.50
2018-06-20T16:15:49.384Z,4.20
2018-06-20T16:18:18.761Z,4.70
2018-06-20T16:20:52.205Z,4.20
2018-06-20T16:23:25.610Z,4.50
2018-06-20T16:25:59.034Z,3.77
2018-06-20T16:28:32.429Z,4.10
2018-06-20T16:31:00.514Z,4.07
2018-06-20T16:33:28.593Z,4.20
2018-06-20T16:35:56.669Z,3.50
2018-06-20T16:38:24.742Z,3.73
2018-06-20T16:40:52.821Z,4.20
2018-06-20T16:43:20.881Z,4.10
2018-06-20T16:45:48.955Z,4.43
2018-06-20T16:48:17.030Z,3.90
2018-06-20T16:50:45.113Z,3.50
2018-06-20T16:53:13.185Z,3.87
2018-06-20T16:55:41.256Z,4.20
2018-06-20T16:58:09.332Z,3.70
2018-06-20T17:00:37.195Z,3.47
2018-06-20T17:03:05.269Z,3.90
2018-06-20T17:05:33.345Z,3.60
2018-06-20T17:08:01.442Z,4.37
2018-06-20T17:10:29.513Z,4.00
2018-06-20T17:13:03.051Z,3.60
2018-06-20T17:15:36.472Z,3.93
2018-06-20T17:18:09.888Z,3.50
2018-06-20T17:20:43.169Z,3.60
2018-06-20T17:23:16.498Z,3.60
2018-06-20T17:25:44.589Z,3.87
2018-06-20T17:28:12.662Z,5.03
2018-06-20T17:30:40.737Z,3.80
2018-06-20T17:33:08.822Z,4.27
2018-06-20T17:35:36.902Z,6.40
2018-06-20T17:38:05.095Z,4.50
2018-06-20T17:40:33.102Z,4.13
2018-06-20T17:43:01.189Z,6.37
2018-06-20T17:45:29.257Z,3.43
2018-06-20T17:47:57.349Z,4.00
2018-06-20T17:50:25.430Z,4.07
2018-06-20T17:52:53.508Z,4.13
2018-06-20T17:55:21.585Z,4.00
2018-06-20T17:57:49.683Z,3.60
2018-06-20T18:00:17.766Z,3.43
2018-06-20T18:02:45.849Z,3.60
2018-06-20T18:05:19.438Z,3.63
2018-06-20T18:07:52.873Z,3.90
2018-06-20T18:10:26.473Z,4.20
2018-06-20T18:12:55.449Z,3.47
2018-06-20T18:15:28.898Z,3.47
2018-06-20T18:17:57.108Z,3.70
2018-06-20T18:20:25.203Z,3.20
2018-06-20T18:22:53.284Z,3.60
2018-06-20T18:25:21.389Z,3.40
2018-06-20T18:27:49.501Z,3.53
2018-06-20T18:30:17.581Z,3.83
2018-06-20T18:32:45.644Z,4.07
2018-06-20T18:35:13.726Z,3.90
2018-06-20T18:37:41.802Z,4.60
2018-06-20T18:40:10.986Z,3.93
2018-06-20T18:42:39.073Z,3.97
2018-06-20T18:45:07.180Z,4.00
2018-06-20T18:47:40.621Z,4.80
2018-06-20T18:50:09.410Z,4.27
2018-06-20T18:52:37.621Z,4.97
2018-06-20T18:55:05.835Z,4.27
2018-06-20T18:57:39.274Z,4.17
2018-06-20T19:00:13.249Z,4.60
2018-06-20T19:02:46.538Z,3.77
2018-06-20T19:05:19.828Z,3.93
2018-06-20T19:07:53.304Z,3.60
2018-06-20T19:10:21.430Z,3.90
2018-06-20T19:12:49.513Z,4.23
2018-06-20T19:15:17.605Z,3.20
2018-06-20T19:17:45.682Z,3.97
2018-06-20T19:20:13.760Z,3.33
2018-06-20T19:22:41.850Z,4.13
2018-06-20T19:25:09.957Z,4.30
2018-06-20T19:27:38.040Z,3.50
2018-06-20T19:30:06.122Z,4.20
2018-06-20T19:32:33.996Z,4.30
2018-06-20T19:35:02.090Z,4.10
2018-06-20T19:37:30.178Z,4.63
2018-06-20T19:39:58.262Z,4.20
2018-06-20T19:42:26.457Z,4.27
2018-06-20T19:44:54.850Z,4.83
2018-06-20T19:47:22.809Z,4.60
2018-06-20T19:49:50.901Z,5.37
2018-06-20T19:52:18.993Z,5.00
2018-06-20T19:54:47.073Z,4.30
2018-06-20T19:57:15.211Z,4.80
2018-06-20T19:59:43.237Z,4.27
2018-06-20T20:02:11.329Z,4.60
2018-06-20T20:04:39.417Z,4.47
2018-06-20T20:07:07.509Z,4.33
2018-06-20T20:09:35.592Z,5.60
2018-06-20T20:12:03.675Z,5.10
2018-06-20T20:14:31.782Z,5.47
2018-06-20T20:16:59.868Z,5.10
2018-06-20T20:19:27.954Z,5.47
2018-06-20T20:21:56.033Z,4.97
2018-06-20T20:24:24.421Z,4.30
2018-06-20T20:26:52.513Z,5.40
2018-06-20T20:29:20.593Z,5.50
2018-06-20T20:31:48.669Z,5.03
2018-06-20T20:34:16.761Z,4.30
2018-06-20T20:36:44.840Z,4.70
2018-06-20T20:39:12.929Z,5.07
2018-06-20T20:41:41.041Z,4.97
2018-06-20T20:44:09.148Z,4.90
2018-06-20T20:46:37.590Z,5.33
2018-06-20T20:49:06.532Z,5.43
2018-06-20T20:51:34.616Z,6.10
2018-06-20T20:54:02.697Z,4.57
2018-06-20T20:56:30.781Z,4.73
2018-06-20T20:58:58.911Z,5.00
2018-06-20T21:01:26.949Z,5.13
2018-06-20T21:03:55.249Z,5.20
2018-06-20T21:06:23.321Z,4.60
2018-06-20T21:08:51.196Z,4.40
2018-06-20T21:11:19.418Z,4.70
2018-06-20T21:13:47.498Z,4.93
2018-06-20T21:16:15.585Z,4.83
2018-06-20T21:18:43.673Z,5.07
2018-06-20T21:21:11.540Z,4.80
2018-06-20T21:23:39.608Z,4.83
2018-06-20T21:26:07.714Z,6.37
2018-06-20T21:28:35.810Z,5.07
2018-06-20T21:31:03.905Z,5.87
2018-06-20T21:33:32.047Z,6.50
2018-06-20T21:36:00.086Z,5.10
2018-06-20T21:38:28.156Z,5.37
2018-06-20T21:40:56.249Z,5.10
2018-06-20T21:43:24.326Z,6.50
2018-06-20T21:45:52.413Z,4.50
2018-06-20T21:48:20.498Z,5.50
2018-06-20T21:50:48.606Z,5.93
2018-06-20T21:53:16.709Z,5.60
2018-06-20T21:55:44.774Z,4.90
2018-06-20T21:58:12.857Z,5.40
2018-06-20T22:00:40.966Z,5.23
2018-06-20T22:03:09.097Z,4.93
2018-06-20T22:05:37.125Z,5.60
2018-06-20T22:08:05.218Z,5.07
2018-06-20T22:10:33.297Z,4.87
2018-06-20T22:13:01.381Z,5.43
2018-06-20T22:15:29.452Z,4.60
2018-06-20T22:17:57.532Z,4.87
2018-06-20T22:20:25.614Z,5.70
2018-06-20T22:22:53.714Z,5.30
2018-06-20T22:25:21.796Z,4.80
2018-06-20T22:27:49.881Z,4.20
2018-06-20T22:30:17.961Z,5.43
2018-06-20T22:32:46.049Z,4.30
2018-06-20T22:35:14.116Z,4.70
2018-06-20T22:37:42.233Z,5.10
2018-06-20T22:40:10.305Z,5.40
2018-06-20T22:42:38.401Z,4.73
2018-06-20T22:45:06.478Z,5.10
2018-06-20T22:47:34.571Z,5.37
2018-06-20T22:50:02.645Z,4.30
2018-06-20T22:52:30.724Z,4.70
2018-06-20T22:54:58.801Z,5.37
2018-06-20T22:57:26.885Z,5.40
2018-06-20T22:59:55.004Z,6.57
2018-06-20T23:02:23.092Z,7.20
2018-06-20T23:04:51.160Z,6.47
2018-06-20T23:07:19.233Z,5.00
2018-06-20T23:09:47.339Z,5.13
2018-06-20T23:12:15.394Z,5.20
2018-06-20T23:14:43.472Z,5.63
2018-06-20T23:17:11.551Z,5.80
2018-06-20T23:19:39.641Z,5.30
